メインページ
METAR-TAF:

METAR-TAF

空港 :

霞ヶ浦駐屯地

かすみがうら, 日本

緯度: 36-02N, 経度: 140-12E, 海抜: 26m

現時点の気象観測

当レポートは6時間59分前の00:23(UTC)に作成
の風 5kt
気温 24°C
湿度 69%
気圧 1015 hPa
視程10km以上
高度2000ftの雲はほとんどない
高度5000ftの千切れ雲あり

METAR: RJAK 200023Z 36005KT 9999 FEW020 BKN050 24/18 Q1015 RMK 1CU020 5SC050 A2998

時間: 16:22 (07:22 UTC)


TAF: 見つかりません

4,000以上の空港の気象観測と天気予報(METAR報とTAF報)

利用可能な観測所は地図上に黄色い丸と赤い丸で示す。

丸の上にカーソルを重ねると観測所名を参照できる。

次にクリックすると気象観測と天気予報を参照できる。

マップの切り替え:黒色「×」印の緑ボタンをクリックして拡大、「-」印の緑ボタンをクリックして縮小、緑色の三角印をクリックして隣りの地図に切り替え


METAR-TAF: